Time;durP1;ratioP1;P1;durP2;ratioP2;P2;SDS_P1;SDS_P2;PMS_P1;PMS_P2;Temp;Humidity;BMP_temperature;BMP_pressure;BME280_temperature;BME280_humidity;BME280_pressure;Samples;Min_cycle;Max_cycle;Signal;HPM_P1;HPM_P2
2023/06/08 00:00:39;;;;;;;0.00;0.00;;;;;;;-145.06;100.00;92352.78;10247502;28;20019;-72
2023/06/08 00:05:46;;;;;;;0.00;0.00;;;;;;;-145.06;100.00;92395.72;10246279;28;20055;-72
2023/06/08 00:10:47;;;;;;;0.10;0.10;;;;;;;-145.06;100.00;92434.56;10246540;28;20023;-74
2023/06/08 00:15:47;;;;;;;0.10;0.10;;;;;;;-145.06;100.00;92434.56;10249484;28;20101;-74
2023/06/08 00:20:47;;;;;;;0.00;0.00;;;;;;;-145.06;100.00;92532.72;10246414;28;20632;-71
2023/06/08 00:25:48;;;;;;;0.10;0.10;;;;;;;-145.06;100.00;92536.81;10245999;28;20049;-72
2023/06/08 00:30:48;;;;;;;0.08;0.08;;;;;;;-145.06;100.00;92497.97;10245686;28;20023;-72
2023/06/08 00:35:49;;;;;;;0.00;0.00;;;;;;;-145.06;100.00;92536.81;10245769;28;20031;-72
2023/06/08 00:40:49;;;;;;;0.10;0.10;;;;;;;-145.06;100.00;92493.88;10245744;28;20027;-71
2023/06/08 00:45:50;;;;;;;0.10;0.10;;;;;;;-145.06;100.00;92502.03;10245170;28;20019;-72
2023/06/08 00:50:52;;;;;;;0.10;0.10;;;;;;;-145.06;100.00;92547.03;10245643;28;20059;-72
2023/06/08 00:55:54;;;;;;;0.00;0.00;;;;;;;-145.06;100.00;92557.25;10245036;28;20074;-72
2023/06/08 01:00:59;;;;;;;0.10;0.10;;;;;;;-145.06;100.00;92559.31;10228645;28;20011;-73
2023/06/08 01:06:04;;;;;;;0.00;0.00;;;;;;;-145.06;100.00;92577.69;10234429;28;20090;-71
2023/06/08 01:11:16;;;;;;;0.00;0.00;;;;;;;-145.06;100.00;92563.38;10252969;28;20031;-72
2023/06/08 01:16:19;;;;;;;0.10;0.10;;;;;;;-145.06;100.00;92592.00;10249886;28;20059;-73
2023/06/08 01:21:37;;;;;;;0.10;0.10;;;;;;;-145.06;100.00;92622.69;10235145;28;20019;-72
2023/06/08 01:26:49;;;;;;;0.10;0.10;;;;;;;-145.06;100.00;92626.78;10250775;28;20468;-72
2023/06/08 01:31:49;;;;;;;0.00;0.00;;;;;;;-145.06;100.00;92622.69;10249643;28;20023;-72
2023/06/08 01:37:13;;;;;;;0.08;0.08;;;;;;;-145.06;100.00;92571.56;10251823;28;20484;-72
2023/06/08 01:42:18;;;;;;;0.05;0.05;;;;;;;-145.06;100.00;92649.28;10252042;28;20023;-72
2023/06/08 01:47:22;;;;;;;0.00;0.00;;;;;;;-145.06;100.00;92639.06;10251311;28;20075;-72
2023/06/08 01:52:22;;;;;;;0.10;0.10;;;;;;;-145.06;100.00;92655.41;10251948;28;20030;-71
2023/06/08 01:57:23;;;;;;;0.00;0.00;;;;;;;-145.06;100.00;92651.31;10251263;28;20023;-70
2023/06/08 02:02:23;;;;;;;0.03;0.03;;;;;;;-145.06;100.00;92626.78;10251698;28;20672;-71
2023/06/08 02:07:23;;;;;;;0.10;0.10;;;;;;;-145.06;100.00;92663.59;10250331;28;20038;-72
2023/06/08 02:12:23;;;;;;;0.00;0.00;;;;;;;-145.06;100.00;92667.69;10251316;28;20122;-71
2023/06/08 02:17:27;;;;;;;0.10;0.10;;;;;;;-145.06;100.00;92675.84;10249729;28;20484;-71
2023/06/08 02:22:28;;;;;;;0.10;0.10;;;;;;;-145.06;100.00;92700.41;10250583;28;20114;-72
2023/06/08 02:27:28;;;;;;;0.10;0.10;;;;;;;-145.06;100.00;92661.53;10250977;28;20094;-73
2023/06/08 02:32:32;;;;;;;0.10;0.10;;;;;;;-145.06;100.00;92667.69;10250713;28;20039;-72
2023/06/08 02:37:34;;;;;;;0.10;0.10;;;;;;;-145.06;100.00;92704.50;10249000;28;20050;-71
2023/06/08 02:42:34;;;;;;;0.10;0.10;;;;;;;-145.06;100.00;92745.38;10251310;28;20059;-73
2023/06/08 02:47:34;;;;;;;0.00;0.00;;;;;;;-145.06;100.00;92682.00;10250154;28;20041;-73
2023/06/08 02:52:35;;;;;;;0.00;0.00;;;;;;;-145.06;100.00;92671.78;10250498;28;20384;-72
2023/06/08 02:57:36;;;;;;;0.00;0.00;;;;;;;-145.06;100.00;92696.31;10243465;28;20267;-72
2023/06/08 03:02:36;;;;;;;0.10;0.10;;;;;;;-145.06;100.00;92724.94;10247336;28;20023;-72
2023/06/08 03:07:40;;;;;;;0.10;0.10;;;;;;;-145.06;100.00;92712.66;10248638;28;20030;-72
2023/06/08 03:12:41;;;;;;;0.10;0.10;;;;;;;-145.06;100.00;92726.97;10249217;28;20437;-74
2023/06/08 03:17:42;;;;;;;0.10;0.10;;;;;;;-145.06;100.00;92741.28;10247897;28;20027;-73
2023/06/08 03:22:45;;;;;;;0.10;0.10;;;;;;;-145.06;100.00;92726.97;10248310;28;20027;-73
2023/06/08 03:27:46;;;;;;;0.10;0.10;;;;;;;-145.06;100.00;92692.22;10248044;28;20036;-73
2023/06/08 03:32:48;;;;;;;0.10;0.10;;;;;;;-145.06;100.00;92682.00;10247969;28;20480;-73
2023/06/08 03:37:49;;;;;;;0.10;0.10;;;;;;;-145.06;100.00;92690.16;10247291;28;20027;-73
2023/06/08 03:42:50;;;;;;;0.10;0.10;;;;;;;-145.06;100.00;92673.81;10248928;28;20027;-73
2023/06/08 03:47:51;;;;;;;0.10;0.10;;;;;;;-145.06;100.00;92700.41;10312906;23;20050;-74
2023/06/08 03:52:51;;;;;;;0.10;0.10;;;;;;;-145.06;100.00;92686.09;10322754;28;20042;-74
2023/06/08 03:57:52;;;;;;;0.10;0.10;;;;;;;-145.06;100.00;92630.88;10322998;28;20657;-74
2023/06/08 04:02:52;;;;;;;0.10;0.10;;;;;;;-145.06;100.00;92657.44;10288249;28;20042;-74
2023/06/08 04:07:52;;;;;;;0.00;0.00;;;;;;;-145.06;100.00;92645.19;10319178;28;20018;-74
2023/06/08 04:12:53;;;;;;;0.10;0.10;;;;;;;-145.06;100.00;92596.09;10309497;28;20320;-74
2023/06/08 04:17:53;;;;;;;0.10;0.10;;;;;;;-145.06;100.00;92577.69;10324198;28;20068;-74
2023/06/08 04:22:54;;;;;;;0.10;0.10;;;;;;;-145.06;100.00;92559.31;10320004;28;20262;-74
2023/06/08 04:27:54;;;;;;;0.10;0.10;;;;;;;-145.06;100.00;92561.34;10321742;28;20460;-74
2023/06/08 04:32:55;;;;;;;0.05;0.05;;;;;;;-145.06;100.00;92630.88;10316255;28;20424;-75
2023/06/08 04:37:55;;;;;;;0.10;0.10;;;;;;;-145.06;100.00;92520.44;10314264;28;20102;-74
2023/06/08 04:42:59;;;;;;;0.00;0.00;;;;;;;-145.06;100.00;92405.94;10297895;28;20023;-74
2023/06/08 04:47:59;;;;;;;0.10;0.10;;;;;;;-145.06;100.00;92205.56;10305302;28;20019;-74
2023/06/08 04:53:01;;;;;;;0.10;0.10;;;;;;;-145.06;100.00;92129.91;10321786;28;20096;-74
2023/06/08 04:58:02;;;;;;;0.10;0.10;;;;;;;-145.06;100.00;92191.25;10322344;28;20022;-74
2023/06/08 05:03:02;;;;;;;0.10;0.10;;;;;;;-145.06;100.00;92070.63;10320921;28;20026;-74
2023/06/08 05:08:02;;;;;;;0.00;0.00;;;;;;;-145.06;100.00;92013.38;10290303;28;20022;-73
2023/06/08 05:13:03;;;;;;;0.10;0.10;;;;;;;-145.06;100.00;92013.38;10321093;28;20030;-74
2023/06/08 05:18:03;;;;;;;0.10;0.10;;;;;;;-145.06;100.00;91956.13;10323692;28;20280;-74
2023/06/08 05:23:03;;;;;;;0.10;0.10;;;;;;;-145.06;100.00;91937.72;10306872;28;20027;-74
2023/06/08 05:28:04;;;;;;;0.10;0.10;;;;;;;-145.06;100.00;91902.97;10322131;28;20084;-74
2023/06/08 05:33:05;;;;;;;0.10;0.10;;;;;;;-145.06;100.00;91808.91;10323425;28;20049;-74
2023/06/08 05:38:05;;;;;;;0.10;0.10;;;;;;;-145.06;100.00;91827.31;10322400;28;20019;-73
2023/06/08 05:43:06;;;;;;;0.10;0.10;;;;;;;-145.06;100.00;91870.25;10317779;28;20406;-74
2023/06/08 05:48:08;;;;;;;0.10;0.10;;;;;;;-145.06;100.00;91780.28;10306686;28;20065;-73
2023/06/08 05:53:08;;;;;;;0.10;0.10;;;;;;;-145.06;100.00;91702.59;10326384;28;20034;-75
2023/06/08 05:58:09;;;;;;;0.10;0.10;;;;;;;-145.06;100.00;91557.47;10330811;28;20018;-75
2023/06/08 06:03:09;;;;;;;0.10;0.10;;;;;;;-145.06;100.00;91526.78;10329899;28;20026;-74
2023/06/08 06:08:09;;;;;;;0.10;0.10;;;;;;;-145.06;100.00;91483.88;10329310;28;20482;-74
2023/06/08 06:13:10;;;;;;;0.10;0.10;;;;;;;-145.06;100.00;91471.59;10330030;28;20328;-74
2023/06/08 06:18:10;;;;;;;0.00;0.00;;;;;;;-145.06;100.00;91281.47;10330350;28;20018;-74
2023/06/08 06:23:10;;;;;;;0.10;0.10;;;;;;;-145.06;96.00;90907.41;10330629;28;20053;-74
2023/06/08 06:28:11;;;;;;;0.10;0.10;;;;;;;-145.06;96.32;91211.97;10330732;28;20021;-75
2023/06/08 06:33:11;;;;;;;0.10;0.10;;;;;;;-145.06;96.16;91195.63;10325905;28;20038;-73
2023/06/08 06:38:11;;;;;;;0.10;0.10;;;;;;;-145.06;95.69;91146.56;10328264;28;20026;-73
2023/06/08 06:43:11;;;;;;;0.10;0.10;;;;;;;-145.06;94.80;91199.72;10329623;28;20026;-73
2023/06/08 06:48:12;;;;;;;0.10;0.10;;;;;;;-145.06;95.86;91167.00;10328474;28;20022;-73
2023/06/08 06:53:12;;;;;;;0.00;0.00;;;;;;;-145.06;98.17;91152.69;10329526;28;20034;-73
2023/06/08 06:58:15;;;;;;;0.05;0.05;;;;;;;-145.06;94.25;90459.81;10328793;28;20041;-73
2023/06/08 07:03:16;;;;;;;0.10;0.10;;;;;;;-145.06;85.98;90476.16;10329519;28;20038;-73
2023/06/08 07:08:17;;;;;;;0.10;0.10;;;;;;;-145.06;75.83;90132.81;10327486;28;20101;-74
2023/06/08 07:13:17;;;;;;;0.10;0.10;;;;;;;-145.06;69.97;89944.81;10327182;28;20022;-74
2023/06/08 07:18:17;;;;;;;0.00;0.00;;;;;;;-145.06;62.96;89854.91;10324173;28;20053;-74
2023/06/08 07:23:19;;;;;;;0.00;0.00;;;;;;;-145.06;62.12;89834.47;10326696;28;20034;-74
2023/06/08 07:28:20;;;;;;;0.00;0.00;;;;;;;-145.06;63.16;89805.84;10328613;28;20482;-74
2023/06/08 07:33:20;;;;;;;0.10;0.10;;;;;;;-145.06;60.22;89830.38;10322939;28;20031;-74
2023/06/08 07:38:20;;;;;;;0.00;0.00;;;;;;;-145.06;58.92;89832.41;10319736;28;20070;-74
2023/06/08 07:43:20;;;;;;;0.08;0.08;;;;;;;-145.06;56.30;89752.72;10327299;28;20018;-75
2023/06/08 07:48:21;;;;;;;0.00;0.00;;;;;;;-145.06;56.29;89646.47;10321796;28;20505;-74
2023/06/08 07:53:21;;;;;;;0.10;0.10;;;;;;;-145.06;53.06;89544.31;10327663;28;20081;-74
2023/06/08 07:58:21;;;;;;;0.10;0.10;;;;;;;-145.06;52.79;89617.84;10322571;28;20056;-74
2023/06/08 08:03:22;;;;;;;0.00;0.00;;;;;;;-145.06;51.99;89634.22;10327675;28;20109;-75
2023/06/08 08:08:22;;;;;;;0.10;0.10;;;;;;;-145.06;54.25;89630.13;10327090;28;20030;-75
2023/06/08 08:13:22;;;;;;;0.00;0.00;;;;;;;-145.06;51.03;89515.69;10325556;28;20034;-75
2023/06/08 08:18:23;;;;;;;0.10;0.10;;;;;;;-145.06;53.63;89507.53;10323734;28;20437;-75
2023/06/08 08:23:24;;;;;;;0.10;0.10;;;;;;;-145.06;48.03;89419.66;10323254;28;20272;-74
2023/06/08 08:28:24;;;;;;;0.00;0.00;;;;;;;-145.06;50.59;89393.09;10325111;28;20019;-75
2023/06/08 08:33:26;;;;;;;0.10;0.10;;;;;;;-145.06;49.82;89378.78;10326766;28;20037;-74
2023/06/08 08:38:27;;;;;;;0.10;0.10;;;;;;;-145.06;48.56;89429.88;10321267;28;20018;-75
2023/06/08 08:43:39;;;;;;;0.10;0.10;;;;;;;-145.06;51.58;89538.16;10325947;28;20041;-74
2023/06/08 08:48:44;;;;;;;0.00;0.00;;;;;;;-145.06;50.59;89532.03;10306142;28;20029;-75
2023/06/08 08:53:49;;;;;;;0.10;0.10;;;;;;;-145.06;50.50;89603.56;10318987;28;20247;-74
2023/06/08 08:58:53;;;;;;;0.10;0.10;;;;;;;-145.06;52.21;89617.84;10297965;28;20022;-74
2023/06/08 09:03:54;;;;;;;0.00;0.00;;;;;;;-145.06;52.02;89720.03;10318215;28;20025;-74
2023/06/08 09:08:54;;;;;;;0.10;0.10;;;;;;;-145.06;56.42;89760.91;10314476;28;20490;-74
2023/06/08 09:14:08;;;;;;;0.00;0.00;;;;;;;-145.06;53.47;89711.84;10319349;28;20266;-74
2023/06/08 09:19:10;;;;;;;0.00;0.00;;;;;;;-145.06;53.78;89724.13;10305837;28;20046;-74
2023/06/08 09:24:12;;;;;;;0.00;0.00;;;;;;;-145.06;53.36;89673.03;10322631;28;20041;-74
2023/06/08 09:29:30;;;;;;;0.10;0.10;;;;;;;-145.06;52.88;89650.56;10330997;28;20019;-75
2023/06/08 09:34:33;;;;;;;0.00;0.00;;;;;;;-145.06;53.16;89589.25;10330880;28;20026;-75
2023/06/08 09:39:40;;;;;;;;;;;;;;;-145.06;52.09;89560.66;10333051;28;20019;-75
2023/06/08 09:44:40;;;;;;;0.00;0.00;;;;;;;-145.06;52.85;89607.66;10342837;23;19921;-72
2023/06/08 09:49:41;;;;;;;0.10;0.10;;;;;;;-145.06;52.99;89621.94;10358839;28;20045;-72
2023/06/08 09:54:45;;;;;;;0.10;0.10;;;;;;;-145.06;51.73;89591.28;10370404;28;20029;-72
2023/06/08 09:59:50;;;;;;;0.10;0.10;;;;;;;-145.06;53.76;89572.91;10368587;28;20502;-71
2023/06/08 10:04:53;;;;;;;0.10;0.10;;;;;;;-145.06;50.15;89558.59;10367632;28;20028;-73
2023/06/08 10:10:07;;;;;;;0.00;0.00;;;;;;;-145.06;51.93;89660.78;10366760;28;20029;-70
2023/06/08 10:15:08;;;;;;;0.00;0.00;;;;;;;-145.06;56.13;89720.03;10351962;28;20485;-71
2023/06/08 10:20:12;;;;;;;0.00;0.00;;;;;;;-145.06;52.47;89658.72;10353232;28;20024;-71
2023/06/08 10:25:16;;;;;;;0.00;0.00;;;;;;;-145.06;53.59;89652.59;10369193;28;20026;-71
2023/06/08 10:30:29;;;;;;;0.10;0.10;;;;;;;-145.06;53.21;89650.56;10370199;28;20030;-71
2023/06/08 10:35:29;;;;;;;0.00;0.00;;;;;;;-145.06;53.93;89744.56;10352355;28;20029;-71
2023/06/08 10:40:30;;;;;;;0.00;0.00;;;;;;;-145.06;51.53;89785.41;10367959;28;20022;-71
2023/06/08 10:45:33;;;;;;;0.10;0.10;;;;;;;-145.06;50.71;89809.94;10369095;28;20022;-71
2023/06/08 10:50:37;;;;;;;0.00;0.00;;;;;;;-145.06;51.05;89809.94;10369792;28;20553;-71
2023/06/08 10:55:38;;;;;;;0.00;0.00;;;;;;;-145.06;51.87;89826.28;10368188;28;20521;-73
2023/06/08 11:00:42;;;;;;;0.00;0.00;;;;;;;-145.06;51.85;89838.53;10369927;28;20022;-71
2023/06/08 11:05:45;;;;;;;0.00;0.00;;;;;;;-145.06;51.28;89863.06;10351226;28;20026;-71
2023/06/08 11:10:52;;;;;;;0.00;0.00;;;;;;;-145.06;48.40;89740.47;10366696;28;20029;-71
2023/06/08 11:15:52;;;;;;;0.00;0.00;;;;;;;-145.06;47.35;89744.56;10368035;28;20030;-72
2023/06/08 11:20:53;;;;;;;0.00;0.00;;;;;;;-145.06;45.71;89748.63;10368478;28;20040;-71
2023/06/08 11:25:53;;;;;;;0.00;0.00;;;;;;;-145.06;43.75;89760.91;10368347;28;20557;-72
2023/06/08 11:30:54;;;;;;;0.00;0.00;;;;;;;-145.06;43.59;89687.34;10367757;28;20040;-72
2023/06/08 11:35:54;;;;;;;0.00;0.00;;;;;;;-145.06;41.20;89601.50;10367097;28;20037;-72
2023/06/08 11:40:58;;;;;;;0.00;0.00;;;;;;;-145.06;41.71;89654.63;10367391;28;20018;-72
2023/06/08 11:45:58;;;;;;;0.00;0.00;;;;;;;-145.06;42.83;89668.94;10365283;28;20072;-72
2023/06/08 11:50:59;;;;;;;0.00;0.00;;;;;;;-145.06;41.66;89638.28;10365598;28;20669;-72
2023/06/08 11:56:01;;;;;;;0.00;0.00;;;;;;;-145.06;42.73;89662.81;10365877;28;20445;-72
2023/06/08 12:01:11;;;;;;;0.03;0.03;;;;;;;-145.06;42.94;89707.78;10364734;28;20029;-72
2023/06/08 12:06:13;;;;;;;0.00;0.00;;;;;;;-145.06;42.58;89720.03;10363417;28;20029;-72
2023/06/08 12:11:14;;;;;;;0.00;0.00;;;;;;;-145.06;44.66;89758.84;10348046;28;20540;-72
2023/06/08 12:16:14;;;;;;;0.03;0.03;;;;;;;-145.06;43.03;89671.00;10364115;28;20222;-72
2023/06/08 12:21:15;;;;;;;0.00;0.00;;;;;;;-145.06;42.13;89679.16;10362742;28;20482;-72
2023/06/08 12:26:15;;;;;;;0.00;0.00;;;;;;;-145.06;43.24;89718.00;10365465;28;20025;-75
2023/06/08 12:31:16;;;;;;;0.00;0.00;;;;;;;-145.06;40.70;89671.00;10365625;28;20400;-73
2023/06/08 12:36:16;;;;;;;0.03;0.03;;;;;;;-145.06;41.42;89673.03;10365284;28;20029;-73
2023/06/08 12:41:18;;;;;;;0.00;0.00;;;;;;;-145.06;39.69;89638.28;10363277;28;20029;-73
2023/06/08 12:46:19;;;;;;;0.10;0.10;;;;;;;-145.06;39.25;89542.25;10347553;28;20018;-73
2023/06/08 12:51:19;;;;;;;0.00;0.00;;;;;;;-145.06;39.23;89544.31;10365802;28;20026;-73
2023/06/08 12:56:20;;;;;;;0.10;0.10;;;;;;;-145.06;39.90;89556.56;10375608;28;20119;-73
2023/06/08 13:01:21;;;;;;;0.00;0.00;;;;;;;-145.06;40.20;89589.25;10379506;28;20041;-74
2023/06/08 13:06:21;;;;;;;0.00;0.00;;;;;;;-145.06;40.55;89550.44;10356310;28;20398;-72
2023/06/08 13:11:21;;;;;;;0.00;0.00;;;;;;;-145.06;40.52;89570.88;10379004;28;20036;-71
2023/06/08 13:16:22;;;;;;;0.00;0.00;;;;;;;-145.06;40.42;89558.59;10350606;28;20049;-72
2023/06/08 13:21:22;;;;;;;0.00;0.00;;;;;;;-145.06;40.68;89591.28;10376414;28;20621;-74
2023/06/08 13:26:23;;;;;;;0.00;0.00;;;;;;;-145.06;39.54;89566.78;10376341;28;20499;-73
2023/06/08 13:31:25;;;;;;;0.00;0.00;;;;;;;-145.06;41.20;89574.94;10373228;28;20440;-74
2023/06/08 13:36:27;;;;;;;0.08;0.08;;;;;;;-145.06;37.86;89472.78;10375753;28;20026;-73
2023/06/08 13:41:33;;;;;;;0.00;0.00;;;;;;;-145.06;37.58;89466.66;10375325;28;20157;-71
2023/06/08 13:46:34;;;;;;;0.00;0.00;;;;;;;-145.06;39.11;89497.31;10373724;28;20030;-74
2023/06/08 13:51:34;;;;;;;0.10;0.10;;;;;;;-145.06;36.99;89417.63;10370231;28;20030;-74
2023/06/08 13:56:35;;;;;;;0.10;0.10;;;;;;;-145.06;35.78;89433.97;10354702;28;20124;-77
2023/06/08 14:01:35;;;;;;;0.00;0.00;;;;;;;-145.06;36.84;89399.22;10372719;28;20014;-73
2023/06/08 14:06:37;;;;;;;0.00;0.00;;;;;;;-145.06;35.63;89354.28;10372955;28;20340;-73
2023/06/08 14:11:37;;;;;;;0.00;0.00;;;;;;;-145.06;34.73;89331.81;10364107;28;20284;-73
2023/06/08 14:16:38;;;;;;;0.00;0.00;;;;;;;-145.06;35.13;89317.50;10349924;28;20034;-74
2023/06/08 14:21:38;;;;;;;0.00;0.00;;;;;;;-145.06;35.96;89333.84;10367532;28;20105;-74
2023/06/08 14:26:38;;;;;;;0.00;0.00;;;;;;;-145.06;35.50;89339.97;10361163;28;20041;-72
2023/06/08 14:31:39;;;;;;;0.10;0.10;;;;;;;-145.06;35.71;89352.22;10363704;28;20088;-73
2023/06/08 14:36:39;;;;;;;0.00;0.00;;;;;;;-145.06;36.10;89295.03;10365747;28;20080;-72
2023/06/08 14:41:40;;;;;;;0.00;0.00;;;;;;;-145.06;36.70;89303.19;10344977;28;20014;-71
2023/06/08 14:46:40;;;;;;;0.00;0.00;;;;;;;-145.06;35.95;89250.06;10355409;28;20112;-72
2023/06/08 14:51:40;;;;;;;0.00;0.00;;;;;;;-145.06;36.72;89288.91;10360445;28;20022;-72
2023/06/08 14:56:41;;;;;;;0.00;0.00;;;;;;;-145.06;36.38;89233.72;10367554;28;20033;-74
2023/06/08 15:01:41;;;;;;;0.00;0.00;;;;;;;-145.06;37.56;89268.47;10370993;28;20026;-73
2023/06/08 15:06:42;;;;;;;0.10;0.10;;;;;;;-145.06;37.53;89272.56;10366227;28;20026;-73
2023/06/08 15:11:42;;;;;;;0.00;0.00;;;;;;;-145.06;37.58;89313.41;10371101;28;20030;-72
2023/06/08 15:16:42;;;;;;;0.00;0.00;;;;;;;-145.06;37.18;89254.16;10369901;28;20030;-73
2023/06/08 15:21:43;;;;;;;0.00;0.00;;;;;;;-145.06;38.74;89337.94;10367497;28;20018;-72
2023/06/08 15:26:43;;;;;;;0.00;0.00;;;;;;;-145.06;38.59;89348.16;10369885;28;20033;-73
2023/06/08 15:31:43;;;;;;;0.00;0.00;;;;;;;-145.06;39.79;89376.75;10365788;28;20037;-72
2023/06/08 15:36:44;;;;;;;0.00;0.00;;;;;;;-145.06;40.77;89444.19;10362611;28;20100;-73
2023/06/08 15:41:44;;;;;;;0.00;0.00;;;;;;;-145.06;39.60;89458.47;10369561;28;20403;-72
2023/06/08 15:46:44;;;;;;;0.10;0.10;;;;;;;-145.06;39.13;89395.13;10369098;28;20072;-73
2023/06/08 15:51:45;;;;;;;0.00;0.00;;;;;;;-145.06;39.77;89433.97;10367318;28;20284;-73
2023/06/08 15:56:45;;;;;;;0.00;0.00;;;;;;;-145.06;40.79;89466.66;10346036;28;20018;-73
2023/06/08 16:01:46;;;;;;;0.00;0.00;;;;;;;-145.06;40.60;89466.66;10367097;28;20390;-73
2023/06/08 16:06:46;;;;;;;0.00;0.00;;;;;;;-145.06;40.48;89525.91;10368416;28;20053;-73
2023/06/08 16:11:47;;;;;;;0.00;0.00;;;;;;;-145.06;40.95;89560.66;10347947;28;20501;-74
2023/06/08 16:16:47;;;;;;;0.00;0.00;;;;;;;-145.06;41.61;89611.72;10365125;28;20022;-74
2023/06/08 16:21:47;;;;;;;0.00;0.00;;;;;;;-145.06;42.28;89681.19;10362830;28;20026;-74
2023/06/08 16:26:48;;;;;;;0.10;0.10;;;;;;;-145.06;45.17;89728.19;10364908;28;20017;-74
2023/06/08 16:31:49;;;;;;;0.00;0.00;;;;;;;-145.06;46.25;89807.91;10365210;28;20479;-74
2023/06/08 16:36:50;;;;;;;0.00;0.00;;;;;;;-145.06;47.80;89850.81;10367677;28;20264;-74
2023/06/08 16:41:50;;;;;;;0.10;0.10;;;;;;;-145.06;48.57;89838.53;10366298;28;20018;-74
2023/06/08 16:46:52;;;;;;;0.00;0.00;;;;;;;-145.06;47.86;89922.34;10361666;28;20263;-74
2023/06/08 16:51:53;;;;;;;0.00;0.00;;;;;;;-145.06;49.55;89922.34;10367651;28;20025;-73
2023/06/08 16:56:53;;;;;;;0.00;0.00;;;;;;;-145.06;50.98;89989.75;10359509;28;20025;-74
2023/06/08 17:01:54;;;;;;;0.00;0.00;;;;;;;-145.06;51.11;90075.59;10367394;28;20525;-74
2023/06/08 17:06:54;;;;;;;0.00;0.00;;;;;;;-145.06;52.95;90102.16;10364845;28;20022;-74
2023/06/08 17:11:54;;;;;;;0.00;0.00;;;;;;;-145.06;53.95;90169.59;10364576;28;20057;-74
2023/06/08 17:16:55;;;;;;;0.00;0.00;;;;;;;-145.06;53.76;90190.03;10357014;28;20022;-74
2023/06/08 17:21:55;;;;;;;0.00;0.00;;;;;;;-145.06;54.42;90218.66;10362032;28;20493;-74
2023/06/08 17:26:56;;;;;;;0.00;0.00;;;;;;;-145.06;54.22;90235.00;10364705;28;20021;-74
2023/06/08 17:31:56;;;;;;;0.00;0.00;;;;;;;-145.06;53.25;90202.31;10368415;28;20222;-74
2023/06/08 17:36:56;;;;;;;0.00;0.00;;;;;;;-145.06;53.22;90200.25;10368276;28;20471;-73
2023/06/08 17:41:57;;;;;;;0.00;0.00;;;;;;;-145.06;51.99;90224.78;10360199;28;20128;-71
2023/06/08 17:46:57;;;;;;;0.00;0.00;;;;;;;-145.06;52.77;90237.03;10366832;28;20030;-74
2023/06/08 17:51:57;;;;;;;0.00;0.00;;;;;;;-145.06;52.62;90298.34;10371533;28;20018;-72
2023/06/08 17:56:58;;;;;;;0.00;0.00;;;;;;;-145.06;54.34;90329.00;10373350;28;20014;-73
2023/06/08 18:01:58;;;;;;;0.00;0.00;;;;;;;-145.06;55.93;90394.41;10373928;28;20018;-74
2023/06/08 18:06:58;;;;;;;0.10;0.10;;;;;;;-145.06;56.58;90414.84;10372567;28;20034;-74
2023/06/08 18:11:58;;;;;;;0.00;0.00;;;;;;;-145.06;58.77;90512.94;10366155;28;20407;-73
2023/06/08 18:16:59;;;;;;;0.10;0.10;;;;;;;-145.06;58.21;90488.41;10372585;28;20036;-73
2023/06/08 18:21:59;;;;;;;0.00;0.00;;;;;;;-145.06;58.31;90478.19;10355273;28;20021;-74
2023/06/08 18:27:00;;;;;;;0.00;0.00;;;;;;;-145.06;58.64;90492.50;10372126;28;20096;-74
2023/06/08 18:32:00;;;;;;;0.00;0.00;;;;;;;-145.06;60.00;90553.81;10369504;28;20023;-73
2023/06/08 18:37:00;;;;;;;0.00;0.00;;;;;;;-145.06;59.80;90584.47;10369589;28;20033;-73
2023/06/08 18:42:01;;;;;;;0.00;0.00;;;;;;;-145.06;60.15;90615.13;10369470;28;20022;-74
2023/06/08 18:47:01;;;;;;;0.00;0.00;;;;;;;-145.06;59.91;90611.03;10369049;28;20026;-74
2023/06/08 18:52:02;;;;;;;0.00;0.00;;;;;;;-145.06;60.08;90621.25;10371702;28;20021;-74
2023/06/08 18:57:03;;;;;;;0.10;0.10;;;;;;;-145.06;60.89;90629.44;10365772;28;20451;-70
2023/06/08 19:02:03;;;;;;;0.00;0.00;;;;;;;-145.06;62.45;90676.44;10366038;28;20021;-73
2023/06/08 19:07:04;;;;;;;0.10;0.10;;;;;;;-145.06;64.01;90727.53;10365750;28;20479;-73
2023/06/08 19:12:05;;;;;;;0.00;0.00;;;;;;;-145.06;65.92;90729.59;10370922;28;20030;-73
2023/06/08 19:17:05;;;;;;;0.00;0.00;;;;;;;-145.06;68.13;90786.81;10346627;28;20029;-73
2023/06/08 19:22:06;;;;;;;0.00;0.00;;;;;;;-145.06;72.88;90823.63;10364840;28;20399;-72
2023/06/08 19:27:07;;;;;;;0.00;0.00;;;;;;;-145.06;74.92;90837.91;10364813;28;20020;-73
2023/06/08 19:32:07;;;;;;;0.10;0.10;;;;;;;-145.06;77.35;90938.06;10364850;28;20022;-73
2023/06/08 19:37:08;;;;;;;0.10;0.10;;;;;;;-145.06;80.65;90962.59;10366545;28;20018;-73
2023/06/08 19:42:08;;;;;;;0.10;0.10;;;;;;;-145.06;82.90;90966.69;10351133;28;20018;-74
2023/06/08 19:47:09;;;;;;;0.03;0.03;;;;;;;-145.06;84.75;91011.66;10368206;28;20026;-72
2023/06/08 19:52:09;;;;;;;0.00;0.00;;;;;;;-145.06;87.33;91036.19;10363736;28;20040;-73
2023/06/08 19:57:09;;;;;;;0.10;0.10;;;;;;;-145.06;93.05;91077.06;10360767;28;20176;-71
2023/06/08 20:02:10;;;;;;;0.10;0.10;;;;;;;-145.06;96.23;91097.50;10361010;28;20052;-73
2023/06/08 20:07:12;;;;;;;0.10;0.10;;;;;;;-145.06;97.72;91138.41;10368605;28;20028;-73
2023/06/08 20:12:13;;;;;;;0.10;0.10;;;;;;;-145.06;97.91;91150.66;10367463;28;20034;-73
2023/06/08 20:17:13;;;;;;;0.00;0.00;;;;;;;-145.06;94.60;91126.13;10367811;28;20033;-73
2023/06/08 20:22:13;;;;;;;0.00;0.00;;;;;;;-145.06;92.25;91120.00;10363663;28;20010;-74
2023/06/08 20:27:14;;;;;;;0.00;0.00;;;;;;;-145.06;92.02;91146.56;10367527;28;20282;-73
2023/06/08 20:32:14;;;;;;;0.00;0.00;;;;;;;-145.06;92.12;91148.63;10367587;28;20112;-74
2023/06/08 20:37:15;;;;;;;0.00;0.00;;;;;;;-145.06;92.40;91162.91;10362925;28;20096;-73
2023/06/08 20:42:16;;;;;;;0.10;0.10;;;;;;;-145.06;92.15;91162.91;10365313;28;20486;-74
2023/06/08 20:47:17;;;;;;;0.10;0.10;;;;;;;-145.06;92.52;91179.28;10366519;28;20096;-73
2023/06/08 20:52:17;;;;;;;0.10;0.10;;;;;;;-145.06;92.51;91134.31;10367141;28;20567;-74
2023/06/08 20:57:17;;;;;;;0.10;0.10;;;;;;;-145.06;92.88;91209.94;10366778;28;20297;-73
2023/06/08 21:02:17;;;;;;;0.00;0.00;;;;;;;-145.06;94.06;91201.75;10349545;28;20029;-74
2023/06/08 21:07:18;;;;;;;0.10;0.10;;;;;;;-145.06;94.63;91236.50;10366254;28;20024;-73
2023/06/08 21:12:18;;;;;;;0.10;0.10;;;;;;;-145.06;95.63;91248.78;10365863;28;20383;-74
2023/06/08 21:17:18;;;;;;;0.10;0.10;;;;;;;-145.06;96.27;91242.66;10347598;28;20486;-74
2023/06/08 21:22:19;;;;;;;0.08;0.08;;;;;;;-145.06;96.56;91289.66;10368954;28;20022;-73
2023/06/08 21:27:20;;;;;;;0.10;0.10;;;;;;;-145.06;98.32;91285.56;10373415;28;20026;-74
2023/06/08 21:32:21;;;;;;;0.10;0.10;;;;;;;-145.06;99.48;91342.81;10371517;28;20228;-73
2023/06/08 21:37:22;;;;;;;0.10;0.10;;;;;;;-145.06;99.80;91338.72;10372840;28;20108;-73
2023/06/08 21:42:22;;;;;;;0.10;0.10;;;;;;;-145.06;100.00;91350.97;10373415;28;20375;-73
2023/06/08 21:47:22;;;;;;;0.08;0.08;;;;;;;-145.06;100.00;91324.41;10366598;28;20026;-73
2023/06/08 21:52:23;;;;;;;0.10;0.10;;;;;;;-145.06;100.00;91387.78;10373509;28;20022;-72
2023/06/08 21:57:23;;;;;;;0.10;0.10;;;;;;;-145.06;100.00;91408.22;10372077;28;20050;-72
2023/06/08 22:02:24;;;;;;;0.10;0.10;;;;;;;-145.06;100.00;91387.78;10368219;28;20402;-72
2023/06/08 22:07:24;;;;;;;0.10;0.10;;;;;;;-145.06;100.00;91381.66;10370405;28;20474;-73
2023/06/08 22:12:25;;;;;;;0.10;0.10;;;;;;;-145.06;100.00;91432.75;10372067;28;20018;-73
2023/06/08 22:17:29;;;;;;;0.10;0.10;;;;;;;-145.06;100.00;91416.41;10367193;28;20096;-73
2023/06/08 22:22:29;;;;;;;0.10;0.10;;;;;;;-145.06;100.00;91432.75;10370105;28;20021;-73
2023/06/08 22:27:30;;;;;;;0.10;0.10;;;;;;;-145.06;100.00;91371.44;10370602;28;20498;-73
2023/06/08 22:32:31;;;;;;;0.10;0.10;;;;;;;-145.06;100.00;91467.50;10351106;28;20096;-73
2023/06/08 22:37:31;;;;;;;0.03;0.03;;;;;;;-145.06;100.00;91457.28;10370696;28;20390;-72
2023/06/08 22:42:31;;;;;;;0.10;0.10;;;;;;;-145.06;100.00;91469.56;10371269;28;20261;-73